createdAt,value
2022-12-25T00:02:17.914Z,101443.16
2022-12-25T00:04:44.667Z,101440.44
2022-12-25T00:07:11.056Z,101443.16
2022-12-25T00:09:37.472Z,101438.56
2022-12-25T00:12:03.991Z,101448.59
2022-12-25T00:14:30.344Z,101448.59
2022-12-25T00:16:56.713Z,101451.31
2022-12-25T00:19:23.110Z,101451.31
2022-12-25T00:21:49.524Z,101441.44
2022-12-25T00:24:15.953Z,101451.31
2022-12-25T00:26:42.354Z,101453.19
2022-12-25T00:29:10.716Z,101454.03
2022-12-25T00:31:37.321Z,101449.59
2022-12-25T00:34:03.751Z,101451.47
2022-12-25T00:36:30.183Z,101458.66
2022-12-25T00:38:56.551Z,101455.03
2022-12-25T00:41:42.097Z,101456.91
2022-12-25T00:44:09.523Z,101456.91
2022-12-25T00:46:36.629Z,101457.75
2022-12-25T00:49:03.342Z,101468.00
2022-12-25T00:51:29.788Z,101472.41
2022-12-25T00:53:56.202Z,101470.72
2022-12-25T00:56:22.658Z,101460.66
2022-12-25T00:58:49.297Z,101452.50
2022-12-25T01:01:15.895Z,101474.28
2022-12-25T01:03:42.514Z,101475.13
2022-12-25T01:06:08.960Z,101477.00
2022-12-25T01:08:36.433Z,101479.72
2022-12-25T01:11:04.538Z,101487.88
2022-12-25T01:13:31.355Z,101496.06
2022-12-25T01:15:57.839Z,101495.38
2022-12-25T01:18:24.796Z,101499.63
2022-12-25T01:20:51.240Z,101514.25
2022-12-25T01:23:17.739Z,101506.09
2022-12-25T01:25:44.122Z,101496.25
2022-12-25T01:28:10.479Z,101499.81
2022-12-25T01:30:36.893Z,101517.00
2022-12-25T01:33:03.398Z,101523.47
2022-12-25T01:35:29.914Z,101535.19
2022-12-25T01:37:56.306Z,101524.31
2022-12-25T01:40:22.746Z,101538.94
2022-12-25T01:42:49.188Z,101543.50
2022-12-25T01:45:31.940Z,101544.38
2022-12-25T01:47:58.843Z,101554.41
2022-12-25T01:50:25.382Z,101552.56
2022-12-25T01:52:52.018Z,101566.00
2022-12-25T01:55:18.542Z,101558.00
2022-12-25T01:57:45.598Z,101552.56
2022-12-25T02:00:12.701Z,101551.69
2022-12-25T02:02:40.088Z,101538.94
2022-12-25T02:05:12.710Z,101538.94
2022-12-25T02:07:41.353Z,101546.22
2022-12-25T02:10:08.911Z,101543.50
2022-12-25T02:12:35.571Z,101551.69
2022-12-25T02:15:06.091Z,101561.56
2022-12-25T02:17:35.747Z,101565.28
2022-12-25T02:20:11.360Z,101555.41
2022-12-25T02:22:56.318Z,101561.72
2022-12-25T02:25:35.020Z,101566.31
2022-12-25T02:28:15.564Z,101558.16
2022-12-25T02:30:44.533Z,101548.28
2022-12-25T02:33:35.159Z,101557.28
2022-12-25T02:36:04.176Z,101559.00
2022-12-25T02:38:36.789Z,101568.19
2022-12-25T02:41:07.529Z,101562.75
2022-12-25T02:43:55.640Z,101568.19
2022-12-25T02:46:41.436Z,101578.06
2022-12-25T02:49:32.507Z,101581.78
2022-12-25T02:52:20.371Z,101583.66
2022-12-25T02:55:18.459Z,101592.69
2022-12-25T02:58:06.751Z,101596.25
2022-12-25T03:00:53.741Z,101593.72
2022-12-25T03:03:40.506Z,101592.88
2022-12-25T03:06:39.817Z,101588.28
2022-12-25T03:09:27.236Z,101588.28
2022-12-25T03:12:04.706Z,101581.97
2022-12-25T03:14:49.473Z,101582.81
2022-12-25T03:17:16.058Z,101589.13
2022-12-25T03:20:01.679Z,101593.72
2022-12-25T03:22:48.210Z,101583.66
2022-12-25T03:25:33.749Z,101595.41
2022-12-25T03:28:00.404Z,101596.44
2022-12-25T03:30:54.589Z,101595.59
2022-12-25T03:33:44.509Z,101613.63
2022-12-25T03:36:18.108Z,101605.63
2022-12-25T03:39:03.235Z,101607.31
2022-12-25T03:41:59.271Z,101604.59
2022-12-25T03:44:59.987Z,101602.72
2022-12-25T03:47:35.221Z,101609.03
2022-12-25T03:50:26.187Z,101609.88
2022-12-25T03:53:13.012Z,101606.13
2022-12-25T03:55:58.415Z,101609.88
2022-12-25T03:58:44.759Z,101622.47
2022-12-25T04:01:29.881Z,101619.91
2022-12-25T04:04:14.901Z,101623.47
2022-12-25T04:07:00.080Z,101624.31
2022-12-25T04:09:44.915Z,101627.91
2022-12-25T04:12:29.734Z,101644.25
2022-12-25T04:15:14.670Z,101644.25
2022-12-25T04:17:59.588Z,101643.38
2022-12-25T04:20:44.544Z,101647.97
2022-12-25T04:23:29.388Z,101655.31
2022-12-25T04:26:16.412Z,101655.13
2022-12-25T04:29:01.155Z,101667.88
2022-12-25T04:31:45.983Z,101664.31
2022-12-25T04:34:30.720Z,101671.47
2022-12-25T04:36:57.109Z,101679.63
2022-12-25T04:39:23.507Z,101667.88
2022-12-25T04:41:49.867Z,101674.19
2022-12-25T04:44:16.282Z,101676.91
2022-12-25T04:46:42.800Z,101682.34
2022-12-25T04:49:09.359Z,101683.22
2022-12-25T04:51:36.531Z,101672.47
2022-12-25T04:54:02.943Z,101681.34
2022-12-25T04:56:29.301Z,101679.47
2022-12-25T04:58:56.084Z,101684.09
2022-12-25T05:01:22.636Z,101684.09
2022-12-25T05:03:49.294Z,101683.22
2022-12-25T05:06:15.707Z,101685.06
2022-12-25T05:08:42.079Z,101672.34
2022-12-25T05:11:09.612Z,101675.06
2022-12-25T05:13:36.346Z,101665.16
2022-12-25T05:16:09.771Z,101665.16
2022-12-25T05:18:36.219Z,101662.31
2022-12-25T05:21:02.987Z,101667.88
2022-12-25T05:23:29.383Z,101668.75
2022-12-25T05:25:55.800Z,101669.63
2022-12-25T05:28:22.157Z,101667.75
2022-12-25T05:30:48.580Z,101658.72
2022-12-25T05:33:15.063Z,101651.41
2022-12-25T05:35:41.444Z,101657.84
2022-12-25T05:38:08.182Z,101651.41
2022-12-25T05:40:34.835Z,101658.72
2022-12-25T05:43:01.199Z,101656.84
2022-12-25T05:45:27.602Z,101648.69
2022-12-25T05:47:54.044Z,101658.72
2022-12-25T05:50:20.438Z,101658.72
2022-12-25T05:52:46.825Z,101664.00
2022-12-25T05:55:13.231Z,101654.28
2022-12-25T05:57:39.723Z,101663.28
2022-12-25T06:00:06.562Z,101667.75
2022-12-25T06:02:34.753Z,101664.16
2022-12-25T06:05:01.373Z,101664.00
2022-12-25T06:07:27.775Z,101665.03
2022-12-25T06:09:54.173Z,101661.44
2022-12-25T06:12:20.592Z,101652.25
2022-12-25T06:14:46.979Z,101654.13
2022-12-25T06:17:13.411Z,101660.44
2022-12-25T06:19:39.883Z,101648.69
2022-12-25T06:22:06.334Z,101642.22
2022-12-25T06:24:32.785Z,101644.09
2022-12-25T06:26:59.155Z,101635.06
2022-12-25T06:29:25.640Z,101631.31
2022-12-25T06:31:57.216Z,101635.06
2022-12-25T06:34:23.919Z,101651.41
2022-12-25T06:36:50.372Z,101648.69
2022-12-25T06:39:17.373Z,101659.56
2022-12-25T06:41:43.822Z,101670.47
2022-12-25T06:44:10.244Z,101660.56
2022-12-25T06:46:36.651Z,101654.97
2022-12-25T06:49:03.184Z,101655.13
2022-12-25T06:51:30.477Z,101656.00
2022-12-25T06:53:57.169Z,101656.84
2022-12-25T06:56:25.238Z,101651.41
2022-12-25T06:58:53.815Z,101650.56
2022-12-25T07:01:40.648Z,101659.56
2022-12-25T07:04:11.415Z,101657.84
2022-12-25T07:06:37.811Z,101653.28
2022-12-25T07:09:04.332Z,101656.00
2022-12-25T07:11:30.738Z,101659.56
2022-12-25T07:13:57.202Z,101666.91
2022-12-25T07:16:23.734Z,101678.63
2022-12-25T07:18:50.212Z,101680.50
2022-12-25T07:21:18.210Z,101692.25
2022-12-25T07:23:45.795Z,101694.13
2022-12-25T07:26:12.954Z,101685.78
2022-12-25T07:28:39.577Z,101692.25
2022-12-25T07:31:16.044Z,101694.13
2022-12-25T07:33:42.732Z,101700.41
2022-12-25T07:36:12.589Z,101712.16
2022-12-25T07:38:40.179Z,101709.44
2022-12-25T07:41:10.175Z,101722.19
2022-12-25T07:43:36.603Z,101714.03
2022-12-25T07:46:03.566Z,101712.16
2022-12-25T07:48:30.061Z,101717.59
2022-12-25T07:51:00.640Z,101721.16
2022-12-25T07:53:27.496Z,101713.00
2022-12-25T07:56:01.191Z,101707.56
2022-12-25T07:58:28.403Z,101709.44
2022-12-25T08:00:54.900Z,101702.97
2022-12-25T08:03:21.745Z,101708.41
2022-12-25T08:05:48.327Z,101711.13
2022-12-25T08:08:14.807Z,101712.81
2022-12-25T08:10:45.131Z,101710.28
2022-12-25T08:13:14.566Z,101713.00
2022-12-25T08:15:41.338Z,101708.41
2022-12-25T08:18:07.845Z,101708.41
2022-12-25T08:20:34.867Z,101712.81
2022-12-25T08:23:01.337Z,101721.16
2022-12-25T08:25:27.764Z,101728.31
2022-12-25T08:27:54.189Z,101730.19
2022-12-25T08:30:20.594Z,101731.88
2022-12-25T08:32:47.023Z,101723.91
2022-12-25T08:35:13.474Z,101724.75
2022-12-25T08:37:39.888Z,101736.47
2022-12-25T08:40:06.662Z,101738.19
2022-12-25T08:42:33.146Z,101732.91
2022-12-25T08:44:59.563Z,101737.50
2022-12-25T08:47:25.912Z,101738.19
2022-12-25T08:49:52.299Z,101748.41
2022-12-25T08:52:18.810Z,101750.09
2022-12-25T08:54:46.389Z,101748.41
2022-12-25T08:57:12.895Z,101750.09
2022-12-25T08:59:39.305Z,101741.06
2022-12-25T09:02:05.781Z,101738.34
2022-12-25T09:04:32.343Z,101736.47
2022-12-25T09:06:58.732Z,101728.31
2022-12-25T09:09:28.425Z,101717.44
2022-12-25T09:11:54.844Z,101719.13
2022-12-25T09:14:21.847Z,101699.22
2022-12-25T09:16:50.031Z,101697.34
2022-12-25T09:19:16.388Z,101707.25
2022-12-25T09:21:42.779Z,101690.06
2022-12-25T09:24:09.188Z,101693.63
2022-12-25T09:26:36.722Z,101688.19
2022-12-25T09:29:03.176Z,101681.00
2022-12-25T09:31:29.702Z,101680.00
2022-12-25T09:33:57.922Z,101674.56
2022-12-25T09:36:24.790Z,101675.41
2022-12-25T09:38:51.548Z,101671.00
2022-12-25T09:41:36.959Z,101674.41
2022-12-25T09:44:24.751Z,101665.38
2022-12-25T09:46:53.832Z,101649.22
2022-12-25T09:49:38.791Z,101654.50
2022-12-25T09:52:09.867Z,101650.06
2022-12-25T09:54:39.362Z,101667.25
2022-12-25T09:57:06.171Z,101659.09
2022-12-25T09:59:32.599Z,101661.81
2022-12-25T10:02:17.938Z,101659.94
2022-12-25T10:04:44.418Z,101660.09
2022-12-25T10:07:31.064Z,101656.38
2022-12-25T10:10:16.017Z,101661.81
2022-12-25T10:12:50.000Z,101675.25
2022-12-25T10:15:46.192Z,101673.56
2022-12-25T10:18:15.549Z,101678.16
2022-12-25T10:20:44.807Z,101674.41
2022-12-25T10:23:18.199Z,101680.00
2022-12-25T10:25:45.124Z,101680.88
2022-12-25T10:28:19.631Z,101681.72
2022-12-25T10:30:46.035Z,101689.03
2022-12-25T10:33:16.818Z,101684.44
2022-12-25T10:35:43.794Z,101675.25
2022-12-25T10:38:14.803Z,101677.13
2022-12-25T10:41:04.604Z,101670.66
2022-12-25T10:43:39.655Z,101658.06
2022-12-25T10:46:13.497Z,101648.19
2022-12-25T10:48:42.267Z,101646.31
2022-12-25T10:51:08.926Z,101640.03
2022-12-25T10:53:39.225Z,101641.91
2022-12-25T10:56:06.666Z,101635.44
2022-12-25T10:58:33.799Z,101629.13
2022-12-25T11:01:02.839Z,101625.56
2022-12-25T11:03:31.357Z,101622.84
2022-12-25T11:05:58.119Z,101630.84
2022-12-25T11:08:26.215Z,101633.56
2022-12-25T11:10:54.723Z,101635.44
2022-12-25T11:13:24.472Z,101637.31
2022-12-25T11:16:13.092Z,101631.84
2022-12-25T11:18:45.536Z,101633.56
2022-12-25T11:21:14.735Z,101644.44
2022-12-25T11:23:44.927Z,101654.50
2022-12-25T11:26:11.778Z,101656.19
2022-12-25T11:28:40.551Z,101653.47
2022-12-25T11:31:09.004Z,101654.31
2022-12-25T11:33:39.811Z,101641.56
2022-12-25T11:36:12.767Z,101629.81
2022-12-25T11:38:39.219Z,101619.78
2022-12-25T11:41:06.089Z,101618.06
2022-12-25T11:43:35.920Z,101624.38
2022-12-25T11:46:21.122Z,101621.66
2022-12-25T11:48:50.190Z,101611.78
2022-12-25T11:51:17.675Z,101607.19
2022-12-25T11:53:50.702Z,101604.63
2022-12-25T11:56:18.565Z,101608.03
2022-12-25T11:58:47.122Z,101599.88
2022-12-25T12:01:16.751Z,101585.41
2022-12-25T12:03:43.665Z,101564.47
2022-12-25T12:06:28.899Z,101559.03
2022-12-25T12:09:14.217Z,101547.28
2022-12-25T12:11:43.718Z,101545.59
2022-12-25T12:14:28.922Z,101536.41
2022-12-25T12:16:55.476Z,101523.81
2022-12-25T12:19:29.706Z,101520.25
2022-12-25T12:21:57.439Z,101520.06
2022-12-25T12:24:25.709Z,101524.66
2022-12-25T12:27:03.630Z,101531.97
2022-12-25T12:29:34.486Z,101538.28
2022-12-25T12:32:03.214Z,101546.44
2022-12-25T12:34:32.795Z,101547.47
2022-12-25T12:37:04.802Z,101541.00
2022-12-25T12:39:36.798Z,101550.00
2022-12-25T12:42:11.422Z,101560.91
2022-12-25T12:44:37.775Z,101560.91
2022-12-25T12:47:04.235Z,101558.16
2022-12-25T12:49:34.570Z,101555.44
2022-12-25T12:52:20.862Z,101550.84
2022-12-25T12:54:56.617Z,101546.44
2022-12-25T12:57:29.477Z,101525.50
2022-12-25T12:59:57.142Z,101524.66
2022-12-25T13:02:42.310Z,101514.78
2022-12-25T13:05:20.778Z,101516.50
2022-12-25T13:08:05.539Z,101523.81
2022-12-25T13:10:37.901Z,101514.63
2022-12-25T13:13:27.589Z,101512.91
2022-12-25T13:15:55.996Z,101522.78
2022-12-25T13:18:22.602Z,101526.34
2022-12-25T13:20:49.640Z,101523.81
2022-12-25T13:23:27.146Z,101519.22
2022-12-25T13:25:54.656Z,101509.16
2022-12-25T13:28:31.584Z,101519.22
2022-12-25T13:31:06.916Z,101504.56
2022-12-25T13:33:33.716Z,101512.75
2022-12-25T13:36:00.239Z,101517.34
2022-12-25T13:38:28.008Z,101520.91
2022-12-25T13:41:15.148Z,101522.78
2022-12-25T13:43:42.702Z,101513.75
2022-12-25T13:46:12.422Z,101512.06
2022-12-25T13:48:38.897Z,101505.59
2022-12-25T13:51:12.562Z,101492.84
2022-12-25T13:53:39.022Z,101488.22
2022-12-25T13:56:05.436Z,101485.50
2022-12-25T13:58:34.753Z,101483.81
2022-12-25T14:01:02.617Z,101474.81
2022-12-25T14:03:35.309Z,101481.09
2022-12-25T14:06:03.527Z,101472.94
2022-12-25T14:08:32.243Z,101466.63
2022-12-25T14:11:00.549Z,101472.09
2022-12-25T14:13:28.540Z,101462.88
2022-12-25T14:15:56.020Z,101460.34
2022-12-25T14:18:23.136Z,101461.00
2022-12-25T14:20:55.324Z,101448.41
2022-12-25T14:23:21.866Z,101446.72
2022-12-25T14:25:48.383Z,101452.16
2022-12-25T14:28:20.148Z,101460.34
2022-12-25T14:30:46.639Z,101462.03
2022-12-25T14:33:15.799Z,101454.03
2022-12-25T14:35:42.178Z,101464.94
2022-12-25T14:38:15.201Z,101472.09
2022-12-25T14:40:45.338Z,101473.94
2022-12-25T14:43:22.191Z,101466.63
2022-12-25T14:45:54.304Z,101472.94
2022-12-25T14:48:25.783Z,101459.31
2022-12-25T14:51:12.607Z,101454.91
2022-12-25T14:53:50.043Z,101450.28
2022-12-25T14:56:20.052Z,101444.00
2022-12-25T14:58:51.951Z,101441.28
2022-12-25T15:01:21.241Z,101432.09
2022-12-25T15:03:49.284Z,101422.22
2022-12-25T15:06:20.606Z,101439.41
2022-12-25T15:09:01.091Z,101446.53
2022-12-25T15:11:28.123Z,101432.09
2022-12-25T15:13:54.639Z,101419.50
2022-12-25T15:16:22.939Z,101403.16
2022-12-25T15:18:50.213Z,101409.47
2022-12-25T15:21:17.831Z,101408.44
2022-12-25T15:23:44.442Z,101393.97
2022-12-25T15:26:13.274Z,101386.66
2022-12-25T15:28:39.710Z,101386.66
2022-12-25T15:31:14.714Z,101393.13
2022-12-25T15:33:44.209Z,101380.38
2022-12-25T15:36:10.935Z,101382.25
2022-12-25T15:38:38.903Z,101377.63
2022-12-25T15:41:09.467Z,101380.38
2022-12-25T15:43:42.868Z,101364.03
2022-12-25T15:46:09.357Z,101372.19
2022-12-25T15:48:35.795Z,101385.81
2022-12-25T15:51:04.016Z,101391.25
2022-12-25T15:53:30.456Z,101387.69
2022-12-25T15:55:56.897Z,101392.09
2022-12-25T15:58:23.257Z,101385.81
2022-12-25T16:00:50.383Z,101377.63
2022-12-25T16:03:16.823Z,101381.22
2022-12-25T16:05:43.239Z,101368.63
2022-12-25T16:08:09.587Z,101367.59
2022-12-25T16:10:38.976Z,101373.03
2022-12-25T16:13:06.770Z,101367.59
2022-12-25T16:15:33.346Z,101368.63
2022-12-25T16:17:59.880Z,101369.47
2022-12-25T16:20:26.317Z,101366.75
2022-12-25T16:22:52.728Z,101359.44
2022-12-25T16:25:19.877Z,101344.13
2022-12-25T16:27:46.438Z,101343.28
2022-12-25T16:30:14.162Z,101331.34
2022-12-25T16:32:42.317Z,101322.34
2022-12-25T16:35:09.327Z,101323.38
2022-12-25T16:37:37.289Z,101327.78
2022-12-25T16:40:04.023Z,101324.22
2022-12-25T16:42:30.489Z,101318.78
2022-12-25T16:44:56.877Z,101311.63
2022-12-25T16:47:23.300Z,101315.22
2022-12-25T16:49:49.793Z,101305.16
2022-12-25T16:52:16.213Z,101307.03
2022-12-25T16:54:44.555Z,101301.59
2022-12-25T16:57:10.936Z,101298.88
2022-12-25T16:59:37.385Z,101288.81
2022-12-25T17:02:03.988Z,101282.53
2022-12-25T17:04:30.551Z,101269.78
2022-12-25T17:06:57.070Z,101260.75
2022-12-25T17:09:23.547Z,101265.34
2022-12-25T17:11:50.035Z,101271.66
2022-12-25T17:14:16.431Z,101265.19
2022-12-25T17:16:42.906Z,101251.75
2022-12-25T17:19:19.317Z,101234.38
2022-12-25T17:21:46.037Z,101235.22
2022-12-25T17:24:12.713Z,101232.69
2022-12-25T17:26:41.455Z,101232.69
2022-12-25T17:29:08.625Z,101232.50
2022-12-25T17:31:35.113Z,101233.53
2022-12-25T17:34:02.568Z,101237.09
2022-12-25T17:36:29.005Z,101226.22
2022-12-25T17:38:55.460Z,101227.06
2022-12-25T17:41:21.915Z,101226.22
2022-12-25T17:43:48.640Z,101227.06
2022-12-25T17:46:19.403Z,101219.06
2022-12-25T17:48:46.009Z,101212.59
2022-12-25T17:51:13.886Z,101218.03
2022-12-25T17:53:41.737Z,101212.59
2022-12-25T17:56:09.727Z,101202.75
2022-12-25T17:58:37.159Z,101197.31
2022-12-25T18:01:07.822Z,101213.44
2022-12-25T18:03:34.589Z,101218.03
2022-12-25T18:06:01.218Z,101209.03
2022-12-25T18:08:30.208Z,101208.00
2022-12-25T18:11:19.657Z,101194.41
2022-12-25T18:13:48.395Z,101187.25
2022-12-25T18:16:15.373Z,101186.22
2022-12-25T18:18:45.316Z,101167.16
2022-12-25T18:21:16.177Z,101161.91
2022-12-25T18:23:42.632Z,101158.16
2022-12-25T18:26:11.809Z,101141.81
2022-12-25T18:28:38.851Z,101130.94
2022-12-25T18:31:13.226Z,101138.06
2022-12-25T18:33:39.699Z,101132.63
2022-12-25T18:36:06.301Z,101124.47
2022-12-25T18:38:32.764Z,101098.28
2022-12-25T18:40:59.206Z,101075.66
2022-12-25T18:43:51.386Z,101077.34
2022-12-25T18:46:12.153Z,101070.19
2022-12-25T18:48:38.773Z,101076.50
2022-12-25T18:51:06.964Z,101081.09
2022-12-25T18:53:33.675Z,101062.03
2022-12-25T18:56:07.514Z,101070.19
2022-12-25T18:58:34.483Z,101072.09
2022-12-25T19:01:00.998Z,101051.31
2022-12-25T19:03:27.606Z,101047.59
2022-12-25T19:05:54.076Z,101054.88
2022-12-25T19:08:20.444Z,101053.88
2022-12-25T19:10:46.878Z,101047.59
2022-12-25T19:13:13.291Z,101050.31
2022-12-25T19:15:43.499Z,101050.13
2022-12-25T19:18:10.343Z,101028.34
2022-12-25T19:20:40.509Z,101028.53
2022-12-25T19:23:07.963Z,101022.03
2022-12-25T19:25:34.621Z,101013.88
2022-12-25T19:28:00.988Z,101005.72
2022-12-25T19:30:27.552Z,101001.13
2022-12-25T19:32:54.023Z,101006.56
2022-12-25T19:35:20.411Z,100999.44
2022-12-25T19:37:46.843Z,100990.22
2022-12-25T19:40:13.339Z,100983.94
2022-12-25T19:42:39.773Z,100988.34
2022-12-25T19:45:06.462Z,100986.66
2022-12-25T19:47:32.889Z,100988.53
2022-12-25T19:50:02.593Z,100984.97
2022-12-25T19:52:29.878Z,100970.31
2022-12-25T19:54:56.386Z,100949.38
2022-12-25T19:57:22.746Z,100945.81
2022-12-25T19:59:49.248Z,100935.97
2022-12-25T20:02:15.700Z,100943.09
2022-12-25T20:04:42.219Z,100959.44
2022-12-25T20:07:08.614Z,100951.28
2022-12-25T20:09:35.131Z,100951.28
2022-12-25T20:12:02.075Z,100942.25
2022-12-25T20:14:28.503Z,100927.81
2022-12-25T20:16:54.926Z,100915.03
2022-12-25T20:19:21.377Z,100915.88
2022-12-25T20:21:47.856Z,100916.72
2022-12-25T20:24:14.291Z,100907.72
2022-12-25T20:26:41.319Z,100903.13
2022-12-25T20:29:07.761Z,100896.81
2022-12-25T20:31:34.720Z,100894.09
2022-12-25T20:34:04.874Z,100894.94
2022-12-25T20:36:36.644Z,100895.97
2022-12-25T20:39:04.367Z,100895.97
2022-12-25T20:41:30.811Z,100895.97
2022-12-25T20:43:57.652Z,100893.25
2022-12-25T20:46:24.882Z,100885.94
2022-12-25T20:48:52.837Z,100876.94
2022-12-25T20:51:20.920Z,100875.06
2022-12-25T20:53:47.652Z,100865.00
2022-12-25T20:56:15.500Z,100856.00
2022-12-25T20:58:41.959Z,100847.00
2022-12-25T21:01:10.215Z,100865.84
2022-12-25T21:03:37.179Z,100866.03
2022-12-25T21:06:03.696Z,100862.28
2022-12-25T21:08:30.158Z,100872.97
2022-12-25T21:11:00.681Z,100856.00
2022-12-25T21:13:29.336Z,100839.66
2022-12-25T21:15:56.452Z,100833.19
2022-12-25T21:18:23.623Z,100837.59
2022-12-25T21:20:52.017Z,100833.19
2022-12-25T21:23:18.506Z,100838.63
2022-12-25T21:25:45.315Z,100822.28
2022-12-25T21:28:11.762Z,100832.16
2022-12-25T21:30:38.417Z,100816.84
2022-12-25T21:33:23.500Z,100820.25
2022-12-25T21:35:49.945Z,100807.84
2022-12-25T21:38:17.360Z,100799.69
2022-12-25T21:40:43.714Z,100804.09
2022-12-25T21:43:11.023Z,100794.03
2022-12-25T21:45:37.403Z,100794.03
2022-12-25T21:48:03.940Z,100794.88
2022-12-25T21:50:49.129Z,100789.44
2022-12-25T21:53:19.070Z,100789.44
2022-12-25T21:55:55.265Z,100781.28
2022-12-25T21:58:21.686Z,100780.44
2022-12-25T22:00:48.080Z,100764.94
2022-12-25T22:03:14.724Z,100764.94
2022-12-25T22:05:59.775Z,100766.66
2022-12-25T22:08:29.180Z,100764.94
2022-12-25T22:10:55.533Z,100772.09
2022-12-25T22:13:40.927Z,100753.19
2022-12-25T22:16:26.044Z,100769.53
2022-12-25T22:19:11.166Z,100765.13
2022-12-25T22:21:37.583Z,100776.03
2022-12-25T22:24:07.117Z,100767.84
2022-12-25T22:26:34.009Z,100768.69
2022-12-25T22:29:00.432Z,100773.97
2022-12-25T22:31:26.823Z,100773.97
2022-12-25T22:33:54.083Z,100776.69
2022-12-25T22:36:20.507Z,100787.59
2022-12-25T22:38:46.865Z,100768.53
2022-12-25T22:41:13.212Z,100762.22
2022-12-25T22:44:15.160Z,100763.94
2022-12-25T22:46:27.009Z,100777.53
2022-12-25T22:48:53.449Z,100760.38
2022-12-25T22:51:19.835Z,100751.16
2022-12-25T22:53:46.234Z,100753.88
2022-12-25T22:56:12.642Z,100749.47
2022-12-25T22:58:39.016Z,100741.31
2022-12-25T23:01:08.173Z,100737.72
2022-12-25T23:03:34.653Z,100724.09
2022-12-25T23:06:01.084Z,100717.81
2022-12-25T23:08:27.601Z,100719.53
2022-12-25T23:10:54.087Z,100724.97
2022-12-25T23:13:38.842Z,100710.50
2022-12-25T23:16:05.684Z,100708.66
2022-12-25T23:18:50.566Z,100723.09
2022-12-25T23:21:36.454Z,100707.78
2022-12-25T23:24:21.729Z,100714.09
2022-12-25T23:26:48.209Z,100711.53
2022-12-25T23:29:33.346Z,100712.38
2022-12-25T23:31:59.775Z,100718.66
2022-12-25T23:34:26.194Z,100718.66
2022-12-25T23:36:52.633Z,100718.66
2022-12-25T23:39:19.050Z,100724.97
2022-12-25T23:41:45.520Z,100711.38
2022-12-25T23:44:12.424Z,100723.94
2022-12-25T23:46:39.127Z,100716.81
2022-12-25T23:49:06.173Z,100710.50
2022-12-25T23:51:34.390Z,100720.38
2022-12-25T23:54:00.801Z,100716.81
2022-12-25T23:56:27.174Z,100711.38
2022-12-25T23:58:53.618Z,100714.09
